Time;durP1;ratioP1;P1;durP2;ratioP2;P2;SDS_P1;SDS_P2;PMS_P1;PMS_P2;Temp;Humidity;BMP_temperature;BMP_pressure;BME280_temperature;BME280_humidity;BME280_pressure;Samples;Min_cycle;Max_cycle;Signal;HPM_P1;HPM_P2
2022/10/15 00:00:50;;;;;;;75.17;53.85;;;;;;;8.09;79.34;101014.38;1770769;80;21033;-82
2022/10/15 00:03:19;;;;;;;70.87;53.15;;;;;;;8.05;79.43;101020.34;1784823;80;21069;-82
2022/10/15 00:05:45;;;;;;;78.67;55.20;;;;;;;8.07;79.61;101013.43;1772016;80;21086;-82
2022/10/15 00:08:12;;;;;;;74.30;53.87;;;;;;;8.06;79.59;101014.28;1756627;80;21770;-83
2022/10/15 00:10:39;;;;;;;73.47;53.38;;;;;;;8.10;79.73;101016.19;1776090;80;21185;-83
2022/10/15 00:13:06;;;;;;;78.33;54.53;;;;;;;8.16;79.93;101009.86;1746684;80;21415;-82
2022/10/15 00:15:36;;;;;;;76.15;52.62;;;;;;;8.20;79.95;101003.89;1741608;80;21098;-83
2022/10/15 00:18:03;;;;;;;73.30;51.25;;;;;;;8.27;80.01;100998.48;1754688;80;21027;-83
2022/10/15 00:20:30;;;;;;;75.90;52.85;;;;;;;8.32;79.95;101000.45;1777468;80;21814;-83
2022/10/15 00:22:57;;;;;;;76.47;53.08;;;;;;;8.36;80.03;100989.23;1777264;80;21127;-83
2022/10/15 00:25:24;;;;;;;71.35;52.85;;;;;;;8.44;80.08;100992.59;1776291;80;21034;-83
2022/10/15 00:27:51;;;;;;;75.17;52.05;;;;;;;8.52;80.15;100985.89;1754754;80;21061;-91
2022/10/15 00:30:18;;;;;;;69.72;51.75;;;;;;;8.60;80.16;100981.84;1774827;80;21073;-83
2022/10/15 00:32:45;;;;;;;67.15;49.53;;;;;;;8.65;80.09;100981.99;1749067;80;21755;-83
2022/10/15 00:35:11;;;;;;;73.90;49.90;;;;;;;8.69;79.94;100982.18;1758744;80;21026;-83
2022/10/15 00:37:38;;;;;;;69.65;49.33;;;;;;;8.69;79.84;100973.39;1751913;80;21038;-82
2022/10/15 00:40:07;;;;;;;72.22;51.20;;;;;;;8.69;79.75;100974.30;1746397;82;21075;-83
2022/10/15 00:42:34;;;;;;;68.15;50.43;;;;;;;8.73;79.92;100977.94;1768104;80;21022;-83
2022/10/15 00:45:01;;;;;;;63.52;49.00;;;;;;;8.76;79.84;100976.71;1746568;80;21755;-83
2022/10/15 00:47:42;;;;;;;67.90;50.12;;;;;;;8.75;79.76;100969.27;1742502;82;21095;-83
2022/10/15 00:50:22;;;;;;;65.67;50.33;;;;;;;8.74;79.66;100956.97;1745785;80;21077;-82
2022/10/15 00:53:07;;;;;;;63.05;48.98;;;;;;;8.75;79.77;100957.45;1764669;80;21011;-82
2022/10/15 00:55:36;;;;;;;71.47;50.15;;;;;;;8.79;79.83;100956.27;1769248;80;21067;-83
2022/10/15 00:58:13;;;;;;;70.70;50.95;;;;;;;8.82;80.04;100955.05;1739833;80;21805;-82
2022/10/15 01:00:40;;;;;;;67.45;49.67;;;;;;;8.91;80.21;100957.99;1759362;80;21536;-82
2022/10/15 01:03:07;;;;;;;71.57;50.38;;;;;;;9.00;80.34;100962.25;1752412;80;21445;-82
2022/10/15 01:05:34;;;;;;;67.25;49.98;;;;;;;9.09;80.38;100956.44;1745143;80;21053;-82
2022/10/15 01:08:02;;;;;;;70.00;51.25;;;;;;;9.17;80.36;100961.95;1727510;82;21021;-82
2022/10/15 01:10:34;;;;;;;73.37;50.83;;;;;;;9.24;80.45;100956.06;1769949;80;21733;-82
2022/10/15 01:13:21;;;;;;;65.85;51.20;;;;;;;9.29;80.45;100955.37;1742215;81;21568;-83
2022/10/15 01:16:05;;;;;;;68.52;51.48;;;;;;;9.32;80.42;100958.09;1773549;80;21030;-83
2022/10/15 01:19:00;;;;;;;66.62;51.33;;;;;;;9.39;80.47;100953.95;1779687;80;21034;-81
2022/10/15 01:21:48;;;;;;;62.75;49.53;;;;;;;9.42;80.46;100950.52;1749947;80;21489;-82
2022/10/15 01:24:36;;;;;;;69.53;50.90;;;;;;;9.49;80.61;100945.50;1747201;80;22455;-83
2022/10/15 01:27:26;;;;;;;64.35;48.60;;;;;;;9.52;80.30;100939.48;1763749;80;21085;-82
2022/10/15 01:30:04;;;;;;;64.03;49.85;;;;;;;9.47;80.13;100922.23;1767559;80;21159;-82
2022/10/15 01:32:51;;;;;;;67.50;48.65;;;;;;;9.42;80.12;100925.16;1743810;80;21070;-82
2022/10/15 01:35:48;;;;;;;66.30;49.45;;;;;;;9.38;80.19;100919.30;1748202;80;21097;-82
2022/10/15 01:38:40;;;;;;;66.37;49.03;;;;;;;9.38;80.30;100923.25;1747991;80;21189;-82
2022/10/15 01:41:14;;;;;;;64.37;47.27;;;;;;;9.39;80.34;100918.48;1747859;81;21541;-82
2022/10/15 01:43:49;;;;;;;62.75;49.08;;;;;;;9.42;80.33;100909.39;1748400;80;21089;-83
2022/10/15 01:46:23;;;;;;;63.68;50.25;;;;;;;9.44;80.39;100904.16;1748358;80;21086;-82
2022/10/15 01:48:50;;;;;;;67.80;50.52;;;;;;;9.47;80.50;100901.64;1762246;80;21284;-82
2022/10/15 01:51:17;;;;;;;65.50;48.65;;;;;;;9.50;80.59;100898.70;1754628;80;22542;-82
2022/10/15 01:53:44;;;;;;;60.05;48.35;;;;;;;9.54;80.57;100895.31;1748295;82;21576;-82
2022/10/15 01:56:15;;;;;;;61.95;48.98;;;;;;;9.56;80.48;100899.31;1737168;80;21073;-82
2022/10/15 01:58:42;;;;;;;66.28;48.30;;;;;;;9.58;80.46;100893.67;1718777;82;21148;-82
2022/10/15 02:01:09;;;;;;;60.00;47.33;;;;;;;9.63;80.56;100901.29;1768514;80;21049;-84
2022/10/15 02:03:50;;;;;;;64.10;47.05;;;;;;;9.68;80.55;100900.98;1750230;80;21724;-82
2022/10/15 02:06:34;;;;;;;65.32;49.08;;;;;;;9.72;80.50;100903.29;1766567;80;21058;-83
2022/10/15 02:09:26;;;;;;;66.53;48.52;;;;;;;9.76;80.50;100901.66;1751276;80;21588;-82
2022/10/15 02:12:04;;;;;;;70.60;51.58;;;;;;;9.79;80.43;100910.53;1750509;81;21063;-82
2022/10/15 02:15:10;;;;;;;63.30;48.80;;;;;;;9.80;80.36;100913.64;1751920;80;21066;-81
2022/10/15 02:17:43;;;;;;;65.17;50.23;;;;;;;9.81;80.35;100910.15;1751752;81;21771;-82
2022/10/15 02:20:22;;;;;;;63.00;48.30;;;;;;;9.82;80.41;100913.26;1771900;80;21070;-81
2022/10/15 02:22:56;;;;;;;67.70;50.38;;;;;;;9.85;80.43;100913.77;1782422;80;21615;-81
2022/10/15 02:25:24;;;;;;;64.67;47.23;;;;;;;9.86;80.49;100903.73;1755544;80;21117;-81
2022/10/15 02:27:52;;;;;;;67.22;52.53;;;;;;;9.91;80.57;100895.57;1745762;81;21067;-81
2022/10/15 02:30:19;;;;;;;66.33;49.88;;;;;;;9.98;80.61;100892.25;1730824;82;21784;-81
2022/10/15 02:32:51;;;;;;;66.07;49.55;;;;;;;10.02;80.53;100891.52;1766683;80;21076;-81
2022/10/15 02:35:18;;;;;;;68.33;49.10;;;;;;;10.06;80.58;100884.58;1742349;80;21082;-81
2022/10/15 02:37:47;;;;;;;65.52;48.25;;;;;;;10.06;80.42;100881.55;1730856;81;21142;-82
2022/10/15 02:40:16;;;;;;;63.05;49.53;;;;;;;10.07;80.43;100890.33;1764610;80;21046;-82
2022/10/15 02:42:43;;;;;;;63.00;49.20;;;;;;;10.07;80.49;100890.33;1742516;80;22645;-82
2022/10/15 02:45:10;;;;;;;71.10;51.33;;;;;;;10.10;80.52;100890.42;1770814;80;21546;-82
2022/10/15 02:47:37;;;;;;;71.22;52.03;;;;;;;10.11;80.38;100894.82;1774053;80;21117;-81
2022/10/15 02:50:04;;;;;;;61.60;49.25;;;;;;;10.11;80.46;100891.76;1785260;80;21128;-82
2022/10/15 02:52:31;;;;;;;63.15;49.98;;;;;;;10.11;80.33;100891.76;1781213;80;21043;-83
2022/10/15 02:54:58;;;;;;;68.70;49.70;;;;;;;10.11;80.31;100890.87;1784841;80;22397;-82
2022/10/15 02:57:25;;;;;;;68.17;49.50;;;;;;;10.15;80.44;100886.59;1785229;80;21097;-82
2022/10/15 02:59:52;;;;;;;68.83;48.65;;;;;;;10.19;80.43;100882.80;1759170;80;21026;-82
2022/10/15 03:02:19;;;;;;;62.55;49.03;;;;;;;10.16;80.18;100885.33;1752850;80;21085;-83
2022/10/15 03:04:46;;;;;;;66.37;48.10;;;;;;;10.14;80.15;100880.45;1742645;80;21082;-83
2022/10/15 03:07:13;;;;;;;69.00;50.05;;;;;;;10.10;80.15;100883.85;1740458;81;22470;-82
2022/10/15 03:09:40;;;;;;;63.75;48.73;;;;;;;10.08;80.20;100885.12;1751879;81;21070;-82
2022/10/15 03:12:07;;;;;;;68.15;47.85;;;;;;;10.09;80.24;100874.16;1745452;81;21060;-83
2022/10/15 03:14:34;;;;;;;71.65;52.10;;;;;;;10.13;80.41;100868.14;1753126;80;21050;-81
2022/10/15 03:17:01;;;;;;;68.72;48.83;;;;;;;10.15;80.32;100878.27;1738467;81;21084;-81
2022/10/15 03:19:27;;;;;;;66.50;49.55;;;;;;;10.15;80.30;100873.45;1758070;81;21662;-82
2022/10/15 03:21:54;;;;;;;72.12;50.23;;;;;;;10.13;80.29;100873.39;1723094;82;21043;-81
2022/10/15 03:24:21;;;;;;;66.72;49.55;;;;;;;10.15;80.32;100865.55;1742428;81;22387;-82
2022/10/15 03:26:48;;;;;;;67.95;50.92;;;;;;;10.06;80.36;100847.77;1723727;82;21068;-91
2022/10/15 03:29:15;;;;;;;63.63;48.65;;;;;;;10.16;80.41;100866.04;1738858;82;21540;-92
2022/10/15 03:31:42;;;;;;;63.92;49.33;;;;;;;10.16;80.38;100862.97;1749529;81;21857;-92
2022/10/15 03:34:09;;;;;;;67.17;52.78;;;;;;;10.15;80.34;100877.39;1751353;81;21039;-91
2022/10/15 03:36:35;;;;;;;65.92;50.83;;;;;;;10.14;80.37;100872.56;1744902;82;21046;-92
2022/10/15 03:39:02;;;;;;;73.15;53.40;;;;;;;10.11;80.30;100864.14;1748277;81;21106;-92
2022/10/15 03:41:29;;;;;;;69.07;50.70;;;;;;;10.08;80.27;100864.08;1769718;81;21078;-91
2022/10/15 03:44:03;;;;;;;72.08;51.83;;;;;;;10.06;80.39;100864.45;1752303;81;21836;-92
2022/10/15 03:46:43;;;;;;;65.90;51.60;;;;;;;10.06;80.42;100864.86;1738973;82;20988;-91
2022/10/15 03:49:10;;;;;;;68.33;51.08;;;;;;;10.06;80.49;100863.55;1738827;82;21015;-91
2022/10/15 03:51:37;;;;;;;72.92;52.60;;;;;;;10.08;80.64;100857.94;1738969;82;21035;-92
2022/10/15 03:54:04;;;;;;;77.17;52.38;;;;;;;10.10;80.67;100858.87;1755405;81;21093;-82
2022/10/15 03:56:31;;;;;;;81.12;53.42;;;;;;;10.11;80.70;100853.63;1747221;81;21738;-82
2022/10/15 03:58:58;;;;;;;67.75;52.43;;;;;;;10.16;80.87;100852.45;1761862;81;20993;-82
2022/10/15 04:01:25;;;;;;;69.37;51.45;;;;;;;10.15;80.64;100846.71;1761591;81;21039;-83
2022/10/15 04:03:52;;;;;;;63.10;49.48;;;;;;;10.11;80.57;100844.41;1729780;82;21074;-82
2022/10/15 04:06:19;;;;;;;69.75;51.30;;;;;;;10.05;80.39;100846.87;1745995;80;21212;-92
2022/10/15 04:08:46;;;;;;;68.78;50.90;;;;;;;9.97;80.41;100839.20;1749614;80;21814;-93
2022/10/15 04:11:14;;;;;;;73.83;51.00;;;;;;;9.92;80.43;100834.23;1746470;82;21075;-93
2022/10/15 04:13:42;;;;;;;66.70;51.20;;;;;;;9.82;80.34;100839.65;1767594;80;21031;-93
2022/10/15 04:16:09;;;;;;;67.90;50.95;;;;;;;9.76;80.33;100837.25;1726618;82;21114;-91
2022/10/15 04:18:36;;;;;;;69.00;50.35;;;;;;;9.68;80.41;100830.45;1768107;80;21090;-92
2022/10/15 04:21:04;;;;;;;72.90;52.80;;;;;;;9.60;80.39;100820.14;1777704;80;21741;-93
2022/10/15 04:23:31;;;;;;;68.47;50.70;;;;;;;9.54;80.54;100825.67;1743967;80;21567;-91
2022/10/15 04:26:00;;;;;;;67.35;50.90;;;;;;;9.48;80.49;100832.50;1746225;80;21078;-90
2022/10/15 04:28:27;;;;;;;71.80;51.65;;;;;;;9.43;80.57;100835.40;1763033;80;21218;-92
2022/10/15 04:30:58;;;;;;;71.02;53.35;;;;;;;9.38;80.66;100826.05;1747416;81;21042;-89
2022/10/15 04:33:35;;;;;;;72.37;54.03;;;;;;;9.34;80.74;100825.05;1773904;80;21478;-92
2022/10/15 04:36:05;;;;;;;74.10;52.70;;;;;;;9.32;80.78;100830.69;1752838;80;21102;-91
2022/10/15 04:38:33;;;;;;;74.05;54.88;;;;;;;9.30;80.84;100822.30;1767053;80;21038;-91
2022/10/15 04:41:08;;;;;;;76.20;54.15;;;;;;;9.26;80.98;100814.74;1752735;80;21043;-92
2022/10/15 04:43:35;;;;;;;78.50;55.05;;;;;;;9.23;80.98;100812.44;1745843;82;21889;-82
2022/10/15 04:46:03;;;;;;;81.00;55.73;;;;;;;9.23;81.18;100813.31;1760544;80;21754;-83
2022/10/15 04:48:32;;;;;;;72.90;56.48;;;;;;;9.21;81.16;100813.70;1775941;80;21074;-82
2022/10/15 04:51:16;;;;;;;74.58;57.23;;;;;;;9.19;81.31;100813.19;1768465;80;21083;-90
2022/10/15 04:53:43;;;;;;;78.80;56.90;;;;;;;9.19;81.48;100810.56;1758169;80;21130;-83
2022/10/15 04:56:16;;;;;;;78.47;58.20;;;;;;;9.18;81.40;100810.08;1772059;80;21082;-86
2022/10/15 04:58:42;;;;;;;81.17;57.90;;;;;;;9.15;81.40;100802.58;1743631;82;21758;-81
2022/10/15 05:01:13;;;;;;;72.55;53.92;;;;;;;9.13;81.54;100802.95;1752581;80;21134;-80
2022/10/15 05:03:42;;;;;;;77.30;56.95;;;;;;;9.10;81.45;100802.87;1747312;80;21070;-83
2022/10/15 05:06:11;;;;;;;77.50;56.98;;;;;;;9.09;81.65;100802.39;1757402;80;21404;-81
2022/10/15 05:08:42;;;;;;;77.25;55.33;;;;;;;9.10;81.81;100801.96;1768452;80;21103;-81
2022/10/15 05:11:12;;;;;;;79.35;58.40;;;;;;;9.12;81.91;100796.33;1757929;80;22399;-81
2022/10/15 05:13:40;;;;;;;77.80;58.33;;;;;;;9.11;81.92;100790.20;1777522;80;21559;-89
2022/10/15 05:16:19;;;;;;;80.83;58.55;;;;;;;9.14;81.94;100796.87;1768156;80;21356;-89
2022/10/15 05:18:48;;;;;;;82.30;57.25;;;;;;;9.17;82.10;100796.06;1779575;80;21524;-89
2022/10/15 05:21:16;;;;;;;82.15;58.95;;;;;;;9.18;82.15;100797.86;1758099;80;21114;-82
2022/10/15 05:23:43;;;;;;;75.15;56.88;;;;;;;9.20;82.22;100797.92;1778239;80;22620;-81
2022/10/15 05:26:14;;;;;;;82.12;58.28;;;;;;;9.21;82.21;100803.19;1746483;80;21086;-89
2022/10/15 05:28:41;;;;;;;84.05;58.15;;;;;;;9.22;82.27;100795.80;1716633;82;21102;-81
2022/10/15 05:31:12;;;;;;;83.42;57.40;;;;;;;9.26;82.26;100798.09;1769229;80;21075;-81
2022/10/15 05:33:39;;;;;;;78.30;59.18;;;;;;;9.27;82.36;100789.36;1774670;80;21077;-82
2022/10/15 05:36:16;;;;;;;76.72;57.73;;;;;;;9.30;82.42;100786.84;1754321;80;21745;-83
2022/10/15 05:38:42;;;;;;;79.87;58.68;;;;;;;9.34;82.50;100786.08;1756810;80;21062;-84
2022/10/15 05:41:09;;;;;;;80.62;58.40;;;;;;;9.40;82.60;100784.95;1745362;80;21347;-83
2022/10/15 05:43:36;;;;;;;82.72;57.03;;;;;;;9.46;82.62;100777.27;1726312;82;21589;-84
2022/10/15 05:46:03;;;;;;;79.55;57.43;;;;;;;9.52;82.69;100772.63;1700942;83;21575;-84
2022/10/15 05:48:30;;;;;;;76.90;56.70;;;;;;;9.58;82.60;100776.73;1779246;80;21743;-84
2022/10/15 05:51:01;;;;;;;78.90;55.50;;;;;;;9.62;82.56;100772.45;1722200;82;21083;-84
2022/10/15 05:53:28;;;;;;;79.85;57.88;;;;;;;9.65;82.56;100769.94;1776476;80;21067;-83
2022/10/15 05:56:04;;;;;;;76.00;56.13;;;;;;;9.68;82.54;100770.88;1775491;80;21016;-94
2022/10/15 05:58:39;;;;;;;81.08;58.35;;;;;;;9.71;82.56;100767.47;1761216;80;21121;-91
2022/10/15 06:01:14;;;;;;;78.83;55.78;;;;;;;9.73;82.58;100764.03;1760062;80;21713;-92
2022/10/15 06:03:42;;;;;;;75.52;55.95;;;;;;;9.79;82.73;100771.20;1713385;83;21086;-92
2022/10/15 06:06:19;;;;;;;85.72;57.60;;;;;;;9.83;82.65;100795.84;1761560;80;21109;-93
2022/10/15 06:08:47;;;;;;;80.55;57.85;;;;;;;9.87;82.79;100792.05;1770414;80;21053;-92
2022/10/15 06:11:14;;;;;;;74.62;56.42;;;;;;;9.96;82.87;100796.66;1735525;82;21067;-92
2022/10/15 06:13:41;;;;;;;78.02;57.45;;;;;;;10.07;82.94;100794.33;1769639;81;21683;-90
2022/10/15 06:16:08;;;;;;;79.32;57.53;;;;;;;10.12;82.76;100796.23;1689996;84;21055;-90
2022/10/15 06:18:36;;;;;;;76.57;57.30;;;;;;;10.18;82.77;100787.62;1757635;81;21047;-88
2022/10/15 06:21:15;;;;;;;77.80;57.30;;;;;;;10.23;82.58;100786.41;1747064;81;21036;-92
2022/10/15 06:23:48;;;;;;;74.95;55.45;;;;;;;10.25;82.49;100796.16;1770269;81;21035;-95
2022/10/15 06:26:16;;;;;;;79.57;59.37;;;;;;;10.30;82.47;100789.31;1770127;81;21438;-92
2022/10/15 06:28:43;;;;;;;80.55;57.98;;;;;;;10.39;82.46;100794.34;1759092;81;21050;-91
2022/10/15 06:31:11;;;;;;;90.30;66.50;;;;;;;10.46;82.43;100797.17;1768897;81;21031;-94
2022/10/15 06:33:38;;;;;;;98.87;76.82;;;;;;;10.54;82.38;100799.13;1760519;80;21031;-93
2022/10/15 06:36:07;;;;;;;94.00;72.58;;;;;;;10.62;82.40;100797.56;1778554;80;21058;-93
2022/10/15 06:38:43;;;;;;;85.77;64.95;;;;;;;10.76;82.54;100799.25;1743595;82;21758;-93
2022/10/15 06:41:34;;;;;;;82.85;61.58;;;;;;;10.93;82.64;100797.03;1743835;82;21019;-95
2022/10/15 06:44:01;;;;;;;81.60;59.50;;;;;;;11.08;82.60;100799.59;1743762;82;21023;-94
2022/10/15 06:46:35;;;;;;;81.32;59.58;;;;;;;11.20;82.48;100805.56;1713039;80;21110;-94
2022/10/15 06:49:03;;;;;;;72.82;54.23;;;;;;;11.30;82.38;100793.52;1711200;82;21060;-92
2022/10/15 06:51:39;;;;;;;80.47;56.73;;;;;;;11.34;82.20;100790.52;1763336;81;21758;-93
2022/10/15 06:54:05;;;;;;;77.72;57.98;;;;;;;11.44;82.32;100784.15;1768793;81;21521;-92
2022/10/15 06:56:32;;;;;;;82.15;59.75;;;;;;;11.53;82.20;100779.52;1746540;81;21121;-92
2022/10/15 06:59:22;;;;;;;79.75;59.27;;;;;;;11.51;81.81;100782.98;1712458;83;21113;-94
2022/10/15 07:01:49;;;;;;;78.47;58.38;;;;;;;11.44;81.67;100781.52;1683827;85;21098;-96
2022/10/15 07:08:31;;;;;;;73.83;55.60;;;;;;;11.35;81.63;100789.22;1739745;82;21067;-94
2022/10/15 07:11:39;;;;;;;75.00;56.40;;;;;;;11.39;81.78;100789.77;1735462;82;21102;-95
2022/10/15 07:14:06;;;;;;;76.28;57.35;;;;;;;11.54;82.22;100787.88;1736476;80;21091;-92
2022/10/15 07:16:33;;;;;;;77.58;54.98;;;;;;;11.77;82.22;100791.42;1721654;82;21655;-93
2022/10/15 07:19:15;;;;;;;72.80;54.08;;;;;;;11.96;82.23;100800.22;1738986;82;21767;-92
2022/10/15 07:21:48;;;;;;;66.02;51.90;;;;;;;12.16;82.40;100799.31;1740053;82;21687;-89
2022/10/15 07:24:15;;;;;;;72.03;52.98;;;;;;;12.39;82.29;100795.77;1740370;82;21064;-94
2022/10/15 07:27:00;;;;;;;68.45;53.38;;;;;;;12.59;82.17;100801.83;1740514;82;21049;-93
2022/10/15 07:29:27;;;;;;;65.05;50.60;;;;;;;12.79;82.12;100803.50;1733913;82;21130;-93
2022/10/15 07:31:53;;;;;;;67.50;51.58;;;;;;;13.01;81.94;100804.30;1738913;82;21726;-93
2022/10/15 07:34:21;;;;;;;71.00;53.25;;;;;;;13.21;81.71;100797.10;1735268;82;21066;-88
2022/10/15 07:36:48;;;;;;;64.77;51.55;;;;;;;13.39;81.48;100796.53;1722609;82;21017;-89
2022/10/15 07:39:18;;;;;;;64.22;49.85;;;;;;;13.54;81.23;100798.50;1739882;82;21112;-92
2022/10/15 07:41:45;;;;;;;62.62;49.40;;;;;;;13.67;81.00;100796.47;1723486;82;21049;-91
2022/10/15 07:44:12;;;;;;;62.30;46.88;;;;;;;13.72;80.36;100800.08;1743443;82;22795;-93
2022/10/15 07:46:38;;;;;;;61.50;47.40;;;;;;;13.67;80.13;100800.44;1708119;83;21068;-90
2022/10/15 07:49:05;;;;;;;60.80;48.40;;;;;;;13.77;79.98;100810.25;1677659;84;21099;-90
2022/10/15 07:51:32;;;;;;;61.08;47.85;;;;;;;13.84;80.02;100798.45;1684467;83;21076;-91
2022/10/15 07:53:59;;;;;;;64.42;49.58;;;;;;;13.99;80.09;100797.30;1755474;81;21526;-90
2022/10/15 07:56:27;;;;;;;61.28;46.92;;;;;;;14.14;79.89;100797.92;1743776;82;22800;-90
2022/10/15 07:58:54;;;;;;;60.90;48.30;;;;;;;14.33;79.94;100798.55;1742827;82;21053;-90
2022/10/15 08:01:21;;;;;;;62.85;47.45;;;;;;;14.51;79.73;100800.96;1758028;80;21025;-89
2022/10/15 08:03:48;;;;;;;56.68;43.23;;;;;;;14.69;79.67;100794.96;1738710;82;21131;-92
2022/10/15 08:06:15;;;;;;;57.35;42.67;;;;;;;14.83;79.57;100780.08;1739815;82;21334;-90
2022/10/15 08:08:42;;;;;;;57.95;44.18;;;;;;;14.89;79.03;100780.12;1752720;80;21901;-90
2022/10/15 08:11:11;;;;;;;52.25;41.10;;;;;;;14.93;78.65;100780.58;1742752;81;21136;-89
2022/10/15 08:13:40;;;;;;;55.60;40.28;;;;;;;14.97;78.48;100775.75;1740514;81;21062;-89
2022/10/15 08:16:09;;;;;;;54.10;43.35;;;;;;;14.96;78.12;100777.97;1731395;81;21086;-90
2022/10/15 08:18:36;;;;;;;58.38;43.40;;;;;;;14.95;78.07;100779.28;1734800;81;21054;-91
2022/10/15 08:21:05;;;;;;;52.93;39.65;;;;;;;14.92;77.77;100774.85;1754133;81;22400;-89
2022/10/15 08:23:31;;;;;;;53.23;41.18;;;;;;;14.82;77.56;100778.29;1750120;81;21109;-90
2022/10/15 08:25:59;;;;;;;57.17;42.62;;;;;;;14.73;77.32;100779.13;1739814;80;21057;-89
2022/10/15 08:28:28;;;;;;;49.25;39.53;;;;;;;14.64;77.26;100782.10;1741629;81;21027;-88
2022/10/15 08:30:58;;;;;;;48.40;39.78;;;;;;;14.57;77.46;100786.03;1747677;80;21039;-90
2022/10/15 08:33:24;;;;;;;48.78;39.30;;;;;;;14.56;77.52;100782.91;1732444;82;21723;-90
2022/10/15 08:35:51;;;;;;;46.55;38.98;;;;;;;14.53;77.53;100778.02;1740642;81;21518;-90
2022/10/15 08:38:18;;;;;;;46.92;40.10;;;;;;;14.50;77.53;100772.69;1727633;81;21082;-88
2022/10/15 08:40:49;;;;;;;51.90;38.40;;;;;;;14.52;77.64;100781.08;1729143;81;21017;-90
2022/10/15 08:43:40;;;;;;;53.00;39.60;;;;;;;14.56;77.78;100775.38;1756357;81;21015;-91
2022/10/15 08:46:30;;;;;;;52.20;40.40;;;;;;;14.63;77.80;100776.37;1757370;81;21763;-92
2022/10/15 08:48:58;;;;;;;51.92;41.73;;;;;;;14.76;77.98;100780.89;1678231;83;21149;-91
2022/10/15 08:51:28;;;;;;;47.95;37.30;;;;;;;14.93;77.82;100770.43;1700760;83;21126;-92
2022/10/15 08:53:58;;;;;;;50.80;41.18;;;;;;;15.04;77.61;100770.06;1700944;83;21070;-91
2022/10/15 08:56:38;;;;;;;49.42;39.20;;;;;;;15.15;77.51;100775.00;1702173;83;21074;-92
2022/10/15 08:59:33;;;;;;;45.28;38.05;;;;;;;15.31;77.34;100779.95;1699826;83;22072;-91
2022/10/15 09:02:11;;;;;;;48.48;38.88;;;;;;;15.52;77.29;100780.95;1701246;83;21108;-89
2022/10/15 09:04:46;;;;;;;39.13;30.72;;;;;;;15.72;76.93;100784.59;1703053;82;21104;-87
2022/10/15 09:07:17;;;;;;;45.10;36.13;;;;;;;15.87;76.59;100785.58;1700643;83;21674;-88
2022/10/15 09:09:57;;;;;;;48.52;35.60;;;;;;;16.04;76.39;100785.19;1693881;83;21085;-89
2022/10/15 09:12:56;;;;;;;49.53;37.60;;;;;;;16.19;76.03;100782.14;1686000;84;21967;-87
2022/10/15 09:15:24;;;;;;;46.40;34.45;;;;;;;16.27;75.57;100778.63;1678119;84;21126;-89
2022/10/15 09:17:51;;;;;;;42.58;36.15;;;;;;;16.38;75.19;100777.30;1696759;83;21546;-89
2022/10/15 09:20:25;;;;;;;40.50;31.02;;;;;;;16.49;75.02;100778.20;1691705;83;21066;-81
2022/10/15 09:22:52;;;;;;;45.43;35.45;;;;;;;16.64;74.98;100773.34;1688951;84;21058;-82
2022/10/15 09:25:21;;;;;;;42.83;34.23;;;;;;;16.79;74.59;100778.22;1727323;81;21754;-82
2022/10/15 09:27:49;;;;;;;48.20;37.03;;;;;;;16.84;74.12;100780.48;1755024;80;21262;-84
2022/10/15 09:30:45;;;;;;;48.17;38.40;;;;;;;16.88;73.74;100786.23;1750622;79;21165;-83
2022/10/15 09:33:33;;;;;;;46.85;37.85;;;;;;;16.93;73.47;100788.88;1764837;80;21129;-83
2022/10/15 09:36:23;;;;;;;49.27;36.23;;;;;;;16.99;73.32;100787.56;1726601;82;21133;-83
2022/10/15 09:39:05;;;;;;;43.38;34.58;;;;;;;17.04;73.10;100788.42;1704218;84;23010;-84
2022/10/15 09:41:50;;;;;;;45.40;36.60;;;;;;;17.10;72.73;100787.11;1710015;80;22126;-84
2022/10/15 09:44:17;;;;;;;50.83;37.88;;;;;;;17.14;72.62;100787.55;1769892;81;21097;-90
2022/10/15 09:46:45;;;;;;;48.05;34.60;;;;;;;17.24;72.45;100783.97;1759903;81;21609;-90
2022/10/15 09:49:18;;;;;;;41.45;34.27;;;;;;;17.32;72.18;100787.94;1758691;81;21524;-90
2022/10/15 09:52:18;;;;;;;47.73;38.30;;;;;;;17.28;71.94;100791.50;1770000;80;21801;-89
2022/10/15 09:58:55;;;;;;;38.75;33.08;;;;;;;17.27;71.63;100779.10;1770419;81;21587;-92
2022/10/15 10:01:29;;;;;;;42.93;36.70;;;;;;;17.23;71.42;100779.97;1759004;81;21103;-88
2022/10/15 10:04:19;;;;;;;44.27;35.28;;;;;;;17.27;71.49;100775.11;1737673;81;21126;-84
2022/10/15 10:06:52;;;;;;;47.13;36.03;;;;;;;17.40;71.58;100768.87;1756943;81;21765;-84
2022/10/15 10:09:24;;;;;;;51.13;38.70;;;;;;;17.50;71.40;100773.71;1744935;81;21091;-86
2022/10/15 10:11:54;;;;;;;46.65;36.28;;;;;;;17.59;71.38;100771.02;1707749;82;21042;-82
2022/10/15 10:14:30;;;;;;;43.17;35.60;;;;;;;17.70;71.21;100767.00;1723207;81;21078;-85
2022/10/15 10:17:16;;;;;;;41.88;33.67;;;;;;;17.76;70.69;100759.43;1732943;82;21316;-87
2022/10/15 10:19:44;;;;;;;37.38;32.88;;;;;;;17.75;70.55;100758.52;1714720;82;22480;-81
2022/10/15 10:22:17;;;;;;;48.68;35.13;;;;;;;17.72;70.24;100769.20;1714280;82;21063;-82
2022/10/15 10:24:46;;;;;;;42.53;33.40;;;;;;;17.67;70.20;100763.88;1708255;82;21078;-83
2022/10/15 10:27:26;;;;;;;39.03;34.70;;;;;;;17.63;70.08;100767.91;1713660;82;21070;-83
2022/10/15 10:30:00;;;;;;;44.83;35.63;;;;;;;17.53;69.89;100769.72;1717107;82;21043;-82
2022/10/15 10:32:32;;;;;;;48.30;37.00;;;;;;;17.39;70.09;100766.20;1713364;81;21761;-86
2022/10/15 10:35:02;;;;;;;43.95;35.83;;;;;;;17.27;70.29;100773.33;1705270;83;21044;-92
2022/10/15 10:37:29;;;;;;;46.50;36.75;;;;;;;17.12;70.42;100775.11;1727520;82;21180;-85
2022/10/15 10:39:58;;;;;;;41.63;32.93;;;;;;;16.97;70.49;100773.36;1707333;82;21067;-88
2022/10/15 10:42:33;;;;;;;43.23;33.40;;;;;;;16.80;70.80;100773.33;1726744;81;21089;-89
2022/10/15 10:45:22;;;;;;;39.58;33.25;;;;;;;16.68;70.98;100776.89;1716016;82;21929;-88
2022/10/15 10:47:49;;;;;;;37.60;30.90;;;;;;;16.56;71.16;100774.24;1717379;82;21078;-90
2022/10/15 10:50:33;;;;;;;39.03;31.97;;;;;;;16.43;71.48;100774.21;1725954;82;21074;-87
2022/10/15 10:53:23;;;;;;;40.03;32.45;;;;;;;16.35;71.69;100774.66;1733422;82;21035;-90
2022/10/15 10:55:55;;;;;;;40.28;34.27;;;;;;;16.33;72.01;100771.99;1729499;82;21039;-87
2022/10/15 10:58:22;;;;;;;38.58;31.93;;;;;;;16.37;72.26;100777.29;1712567;81;22504;-88
2022/10/15 11:00:51;;;;;;;40.12;32.75;;;;;;;16.42;72.43;100769.80;1713727;82;21079;-84
2022/10/15 11:03:38;;;;;;;42.40;33.67;;;;;;;16.52;72.54;100777.33;1706942;81;21104;-84
2022/10/15 11:06:48;;;;;;;43.68;32.42;;;;;;;16.58;72.61;100772.02;1693021;84;21110;-82
2022/10/15 11:10:17;;;;;;;47.45;35.88;;;;;;;16.66;72.50;100770.69;1728504;81;21061;-90
2022/10/15 11:13:10;;;;;;;40.45;31.97;;;;;;;16.69;72.51;100774.69;1768347;81;21734;-84
2022/10/15 11:15:54;;;;;;;41.60;33.78;;;;;;;16.75;72.54;100769.36;1765099;81;21579;-80
2022/10/15 11:18:41;;;;;;;43.90;33.67;;;;;;;16.83;72.67;100770.27;1745144;81;21521;-80
2022/10/15 11:21:30;;;;;;;40.60;31.33;;;;;;;16.95;72.70;100761.42;1759583;80;21430;-82
2022/10/15 11:24:19;;;;;;;40.55;31.87;;;;;;;17.07;72.65;100760.51;1759230;81;21050;-81
2022/10/15 11:27:21;;;;;;;39.42;29.27;;;;;;;17.15;72.58;100758.71;1744052;81;21755;-85
2022/10/15 11:29:56;;;;;;;37.23;30.17;;;;;;;17.30;72.79;100760.45;1747808;80;21312;-90
2022/10/15 11:36:32;;;;;;;38.35;32.03;;;;;;;17.36;72.40;100749.81;1745969;80;21103;-90
2022/10/15 11:39:27;;;;;;;40.05;33.05;;;;;;;17.34;72.22;100743.59;1756569;81;21022;-84
2022/10/15 11:41:57;;;;;;;;;;;;;;;17.29;72.15;100737.42;1766178;81;21750;-82
2022/10/15 11:44:45;;;;;;;38.15;30.20;;;;;;;17.30;72.04;100732.52;1743666;80;20379;-90
2022/10/15 11:47:41;;;;;;;40.10;29.45;;;;;;;17.32;72.20;100737.39;1693205;84;21663;-83
2022/10/15 11:50:27;;;;;;;37.78;29.87;;;;;;;17.39;72.21;100735.16;1750557;80;21047;-82